Emerald Leader — C6WP4 — position and weather

sailwx.info

Track history (hours):
 
Tides and Currents Weather Stations Pressure Air Temp Water Temp Dewpoint Dewpoint Depression Visibility Wind Speed Wind Dir Waves Ship Positions

Emerald Leader

Last reported at 2014-Nov-25 11:30 UTC. Time now 2014-Nov-25 20:52 UTC.
Position N 39°38' W 000°13'.

Length 176 m; draft 8.5 m.

Type: Cargo ship. MMSI: 308688000.

Date/timePositionNaut miles runAvg speedWind from/ knotsBaromVisibWave heightAir tempDewpointWater temp
2014-Nov-25 11:30N 39°38' W 000°13'7 7.6
2014-Nov-25 10:31N 39°33' W 000°06'9613.4
2014-Nov-25 03:20N 37°57' W 000°10'1316.3
2014-Nov-25 02:33N 37°47' W 000°19'1916.1
2014-Nov-25 01:23N 37°31' W 000°33'1316.0
2014-Nov-25 00:33N 37°23' W 000°45'1615.8
2014-Nov-24 23:33N 37°12' W 001°00'212 6.8
2014-Nov-23 16:10N 36°04' W 005°11'915.1
2014-Nov-23 15:33N 35°59' W 005°21'16313.5
2014-Nov-23 03:28N 36°25' W 008°41'9613.6
2014-Nov-22 20:25N 37°44' W 009°49'1315.2
2014-Nov-22 19:33N 37°57' W 009°54'1515.1
2014-Nov-22 18:33N 38°11' W 009°57'1915.3
2014-Nov-22 17:17N 38°30' W 010°03'  
2014-Nov-20 01:33N 50°35' W 005°35'1413.5
2014-Nov-20 00:33N 50°44' W 005°19'8114.9
2014-Nov-19 19:07N 51°21' W 003°24'915.9
2014-Nov-19 18:33N 51°22' W 003°10'1414.4
2014-Nov-19 17:33N 51°29' W 002°50'4 4.5
2014-Nov-19 16:34N 51°30' W 002°43'0 0.2
2014-Nov-19 15:33N 51°30' W 002°43'0 0.0
2014-Nov-19 14:33N 51°30' W 002°43'0 0.0
2014-Nov-19 13:33N 51°30' W 002°43'0 0.0
2014-Nov-19 12:33N 51°30' W 002°43'0 0.0
2014-Nov-19 11:33N 51°30' W 002°43'0 0.0
2014-Nov-19 10:33N 51°30' W 002°43'0 0.0
2014-Nov-19 09:33N 51°30' W 002°43'0 0.0
2014-Nov-19 08:33N 51°30' W 002°43'0 0.0
2014-Nov-19 07:33N 51°30' W 002°43'0 0.0
2014-Nov-19 06:33N 51°30' W 002°43'0 0.0
2014-Nov-19 05:33N 51°30' W 002°43'0 0.0
2014-Nov-19 04:33N 51°30' W 002°43'0 0.0
2014-Nov-19 03:33N 51°30' W 002°43'0 0.0
2014-Nov-19 02:33N 51°30' W 002°43'0 0.0
2014-Nov-19 01:33N 51°30' W 002°43'0 0.0
2014-Nov-19 00:33N 51°30' W 002°43'0 0.0
2014-Nov-18 23:33N 51°30' W 002°43'0 0.0
2014-Nov-18 22:33N 51°30' W 002°43'0 0.0
2014-Nov-18 21:33N 51°30' W 002°43'0 0.0
2014-Nov-18 20:33N 51°30' W 002°43'0 0.0
2014-Nov-18 19:33N 51°30' W 002°43'0 0.0
2014-Nov-18 18:33N 51°30' W 002°43'0 0.0
2014-Nov-18 17:33N 51°30' W 002°43'0 0.0
2014-Nov-18 16:33N 51°30' W 002°43'0 0.0
2014-Nov-18 15:33N 51°30' W 002°43'0 0.0
2014-Nov-18 14:33N 51°30' W 002°43'0 0.0
2014-Nov-18 13:33N 51°30' W 002°43'0 0.0
2014-Nov-18 12:33N 51°30' W 002°43'0 0.0
2014-Nov-18 11:33N 51°30' W 002°43'0 0.0
2014-Nov-18 10:33N 51°30' W 002°43'0 0.0
2014-Nov-18 09:33N 51°30' W 002°43'0 0.0
2014-Nov-18 08:33N 51°30' W 002°43'0 0.0
2014-Nov-18 07:33N 51°30' W 002°43'0 0.0
2014-Nov-18 06:33N 51°30' W 002°43'0 0.0
2014-Nov-18 05:33N 51°30' W 002°43'0 0.0
2014-Nov-18 04:33N 51°30' W 002°43'1 1.1
2014-Nov-18 03:33N 51°30' W 002°45'1514.9
2014-Nov-18 02:34N 51°23' W 003°05'8716.1
2014-Nov-17 21:08N 50°46' W 005°12'916.1
2014-Nov-17 20:33N 50°40' W 005°23'1614.3
2014-Nov-17 19:27N 50°30' W 005°41'22011.6
2014-Nov-17 00:30N 50°32' E 000°05'1515.9
2014-Nov-16 23:34N 50°35' E 000°28'1615.8
2014-Nov-16 22:33N 50°43' E 000°50'1615.4
2014-Nov-16 21:32N 50°53' E 001°09'1414.6
2014-Nov-16 20:33N 51°03' E 001°25'1413.6
2014-Nov-16 19:34N 51°11' E 001°42'1414.3
2014-Nov-16 18:34N 51°22' E 001°57'1313.1
2014-Nov-16 17:33N 51°21' E 002°18'1514.7
2014-Nov-16 16:33N 51°22' E 002°41'1414.5
2014-Nov-16 15:33N 51°24' E 003°04'7 5.7
2014-Nov-16 14:18N 51°20' E 003°13'2 2.3
2014-Nov-16 13:22N 51°18' E 003°14'0 0.0
2014-Nov-16 12:31N 51°18' E 003°14'0 0.0
2014-Nov-16 11:28N 51°18' E 003°14'0 0.0
2014-Nov-16 10:31N 51°18' E 003°14'0 0.0
2014-Nov-16 09:28N 51°18' E 003°14'0 0.0
2014-Nov-16 08:16N 51°18' E 003°14'0 0.0
2014-Nov-16 07:28N 51°18' E 003°14'0 0.0
2014-Nov-16 06:28N 51°18' E 003°14'0 0.0
2014-Nov-16 05:19N 51°18' E 003°14'0 0.0
2014-Nov-16 04:22N 51°18' E 003°14'0 0.0
2014-Nov-16 03:28N 51°18' E 003°14'0 0.0
2014-Nov-16 02:31N 51°18' E 003°14'0 0.0
2014-Nov-16 01:22N 51°18' E 003°14'0 0.0
2014-Nov-15 23:25N 51°18' E 003°14'0 0.0
2014-Nov-15 21:28N 51°18' E 003°14'0 0.0
2014-Nov-15 20:31N 51°18' E 003°14'0 0.1
2014-Nov-15 19:29N 51°18' E 003°14'1 1.0
2014-Nov-15 18:32N 51°19' E 003°13'0 0.0
2014-Nov-15 17:26N 51°19' E 003°13'0 0.0
2014-Nov-15 16:26N 51°19' E 003°13'0 0.0
2014-Nov-15 15:23N 51°19' E 003°13'0 0.0
2014-Nov-15 14:32N 51°19' E 003°13'0 0.0
2014-Nov-15 12:32N 51°19' E 003°13'  
Track history (hours):
 
Tides and Currents Weather Stations Pressure Air Temp Water Temp Dewpoint Dewpoint Depression Visibility Wind Speed Wind Dir Waves Ship Positions

Emerald Leader

Last reported at 2014-Nov-25 11:30 UTC. Time now 2014-Nov-25 20:52 UTC.
Position N 39°38' W 000°13'.

Length 176 m; draft 8.5 m.

Type: Cargo ship. MMSI: 308688000.

Date/timePositionNaut miles runAvg speedWind from/ knotsBaromVisibWave heightAir tempDewpointWater temp
2014-Nov-25 11:30N 39°38' W 000°13'7 7.6
2014-Nov-25 10:31N 39°33' W 000°06'9613.4
2014-Nov-25 03:20N 37°57' W 000°10'1316.3
2014-Nov-25 02:33N 37°47' W 000°19'1916.1
2014-Nov-25 01:23N 37°31' W 000°33'1316.0
2014-Nov-25 00:33N 37°23' W 000°45'1615.8
2014-Nov-24 23:33N 37°12' W 001°00'212 6.8
2014-Nov-23 16:10N 36°04' W 005°11'915.1
2014-Nov-23 15:33N 35°59' W 005°21'16313.5
2014-Nov-23 03:28N 36°25' W 008°41'9613.6
2014-Nov-22 20:25N 37°44' W 009°49'1315.2
2014-Nov-22 19:33N 37°57' W 009°54'1515.1
2014-Nov-22 18:33N 38°11' W 009°57'1915.3
2014-Nov-22 17:17N 38°30' W 010°03'  
2014-Nov-20 01:33N 50°35' W 005°35'1413.5
2014-Nov-20 00:33N 50°44' W 005°19'8114.9
2014-Nov-19 19:07N 51°21' W 003°24'915.9
2014-Nov-19 18:33N 51°22' W 003°10'1414.4
2014-Nov-19 17:33N 51°29' W 002°50'4 4.5
2014-Nov-19 16:34N 51°30' W 002°43'0 0.2
2014-Nov-19 15:33N 51°30' W 002°43'0 0.0
2014-Nov-19 14:33N 51°30' W 002°43'0 0.0
2014-Nov-19 13:33N 51°30' W 002°43'0 0.0
2014-Nov-19 12:33N 51°30' W 002°43'0 0.0
2014-Nov-19 11:33N 51°30' W 002°43'0 0.0
2014-Nov-19 10:33N 51°30' W 002°43'0 0.0
2014-Nov-19 09:33N 51°30' W 002°43'0 0.0
2014-Nov-19 08:33N 51°30' W 002°43'0 0.0
2014-Nov-19 07:33N 51°30' W 002°43'0 0.0
2014-Nov-19 06:33N 51°30' W 002°43'0 0.0
2014-Nov-19 05:33N 51°30' W 002°43'0 0.0
2014-Nov-19 04:33N 51°30' W 002°43'0 0.0
2014-Nov-19 03:33N 51°30' W 002°43'0 0.0
2014-Nov-19 02:33N 51°30' W 002°43'0 0.0
2014-Nov-19 01:33N 51°30' W 002°43'0 0.0
2014-Nov-19 00:33N 51°30' W 002°43'0 0.0
2014-Nov-18 23:33N 51°30' W 002°43'0 0.0
2014-Nov-18 22:33N 51°30' W 002°43'0 0.0
2014-Nov-18 21:33N 51°30' W 002°43'0 0.0
2014-Nov-18 20:33N 51°30' W 002°43'0 0.0
2014-Nov-18 19:33N 51°30' W 002°43'0 0.0
2014-Nov-18 18:33N 51°30' W 002°43'0 0.0
2014-Nov-18 17:33N 51°30' W 002°43'0 0.0
2014-Nov-18 16:33N 51°30' W 002°43'0 0.0
2014-Nov-18 15:33N 51°30' W 002°43'0 0.0
2014-Nov-18 14:33N 51°30' W 002°43'0 0.0
2014-Nov-18 13:33N 51°30' W 002°43'0 0.0
2014-Nov-18 12:33N 51°30' W 002°43'0 0.0
2014-Nov-18 11:33N 51°30' W 002°43'0 0.0
2014-Nov-18 10:33N 51°30' W 002°43'0 0.0
2014-Nov-18 09:33N 51°30' W 002°43'0 0.0
2014-Nov-18 08:33N 51°30' W 002°43'0 0.0
2014-Nov-18 07:33N 51°30' W 002°43'0 0.0
2014-Nov-18 06:33N 51°30' W 002°43'0 0.0
2014-Nov-18 05:33N 51°30' W 002°43'0 0.0
2014-Nov-18 04:33N 51°30' W 002°43'1 1.1
2014-Nov-18 03:33N 51°30' W 002°45'1514.9
2014-Nov-18 02:34N 51°23' W 003°05'8716.1
2014-Nov-17 21:08N 50°46' W 005°12'916.1
2014-Nov-17 20:33N 50°40' W 005°23'1614.3
2014-Nov-17 19:27N 50°30' W 005°41'22011.6
2014-Nov-17 00:30N 50°32' E 000°05'1515.9
2014-Nov-16 23:34N 50°35' E 000°28'1615.8
2014-Nov-16 22:33N 50°43' E 000°50'1615.4
2014-Nov-16 21:32N 50°53' E 001°09'1414.6
2014-Nov-16 20:33N 51°03' E 001°25'1413.6
2014-Nov-16 19:34N 51°11' E 001°42'1414.3
2014-Nov-16 18:34N 51°22' E 001°57'1313.1
2014-Nov-16 17:33N 51°21' E 002°18'1514.7
2014-Nov-16 16:33N 51°22' E 002°41'1414.5
2014-Nov-16 15:33N 51°24' E 003°04'7 5.7
2014-Nov-16 14:18N 51°20' E 003°13'2 2.3
2014-Nov-16 13:22N 51°18' E 003°14'0 0.0
2014-Nov-16 12:31N 51°18' E 003°14'0 0.0
2014-Nov-16 11:28N 51°18' E 003°14'0 0.0
2014-Nov-16 10:31N 51°18' E 003°14'0 0.0
2014-Nov-16 09:28N 51°18' E 003°14'0 0.0
2014-Nov-16 08:16N 51°18' E 003°14'0 0.0
2014-Nov-16 07:28N 51°18' E 003°14'0 0.0
2014-Nov-16 06:28N 51°18' E 003°14'0 0.0
2014-Nov-16 05:19N 51°18' E 003°14'0 0.0
2014-Nov-16 04:22N 51°18' E 003°14'0 0.0
2014-Nov-16 03:28N 51°18' E 003°14'0 0.0
2014-Nov-16 02:31N 51°18' E 003°14'0 0.0
2014-Nov-16 01:22N 51°18' E 003°14'0 0.0
2014-Nov-15 23:25N 51°18' E 003°14'0 0.0
2014-Nov-15 21:28N 51°18' E 003°14'0 0.0
2014-Nov-15 20:31N 51°18' E 003°14'0 0.1
2014-Nov-15 19:29N 51°18' E 003°14'1 1.0
2014-Nov-15 18:32N 51°19' E 003°13'0 0.0
2014-Nov-15 17:26N 51°19' E 003°13'0 0.0
2014-Nov-15 16:26N 51°19' E 003°13'0 0.0
2014-Nov-15 15:23N 51°19' E 003°13'0 0.0
2014-Nov-15 14:32N 51°19' E 003°13'0 0.0
2014-Nov-15 12:32N 51°19' E 003°13'  

Dump ship's entire track history